TimeEDT,TemperatureF,Dew PointF,Humidity,Sea Level PressureIn,VisibilityMPH,Wind Direction,Wind SpeedMPH,Gust SpeedMPH,PrecipitationIn,Events,Conditions,WindDirDegrees,DateUTC
12:56 AM,73.0,71.1,93,30.19,7.0,SW,13.8,23.0,N/A,,Overcast,220,2013-07-03 04:56:00
1:56 AM,72.0,70.0,93,30.19,7.0,SW,12.7,-,N/A,,Overcast,230,2013-07-03 05:56:00
2:56 AM,72.0,70.0,93,30.19,8.0,SW,10.4,-,N/A,,Overcast,230,2013-07-03 06:56:00
3:56 AM,72.0,70.0,93,30.19,8.0,SW,9.2,-,N/A,,Overcast,220,2013-07-03 07:56:00
4:44 AM,71.6,69.8,94,30.20,5.0,SW,13.8,-,N/A,,Overcast,230,2013-07-03 08:44:00
4:56 AM,71.1,70.0,96,30.20,4.0,SW,12.7,-,N/A,,Overcast,230,2013-07-03 08:56:00
5:51 AM,71.6,69.8,94,30.21,2.5,SW,12.7,-,N/A,,Overcast,220,2013-07-03 09:51:00
5:56 AM,71.1,70.0,96,30.22,1.5,SW,12.7,-,N/A,,Overcast,220,2013-07-03 09:56:00
6:56 AM,72.0,70.0,93,30.22,10.0,SW,15.0,21.9,N/A,,Mostly Cloudy,230,2013-07-03 10:56:00
7:06 AM,73.4,69.8,88,30.22,9.0,SW,11.5,-,N/A,,Overcast,220,2013-07-03 11:06:00
7:27 AM,73.4,69.8,88,30.23,10.0,SW,16.1,23.0,N/A,,Scattered Clouds,220,2013-07-03 11:27:00
7:56 AM,73.9,70.0,87,30.23,10.0,SW,16.1,-,N/A,,Clear,220,2013-07-03 11:56:00
8:56 AM,77.0,70.0,79,30.23,10.0,SW,18.4,25.3,N/A,,Clear,220,2013-07-03 12:56:00
9:56 AM,78.1,71.1,79,30.23,10.0,SW,16.1,23.0,N/A,,Clear,230,2013-07-03 13:56:00
10:56 AM,78.1,71.1,79,30.23,10.0,SW,13.8,20.7,N/A,,Clear,220,2013-07-03 14:56:00
11:56 AM,77.0,71.1,82,30.23,10.0,SW,13.8,20.7,N/A,,Clear,220,2013-07-03 15:56:00
12:56 PM,80.1,72.0,76,30.22,10.0,SW,17.3,23.0,N/A,,Clear,230,2013-07-03 16:56:00
1:56 PM,79.0,72.0,79,30.22,10.0,SW,18.4,24.2,N/A,,Clear,220,2013-07-03 17:56:00
2:56 PM,80.1,72.0,76,30.21,10.0,SW,19.6,-,N/A,,Clear,220,2013-07-03 18:56:00
3:56 PM,80.1,72.0,76,30.20,10.0,SW,18.4,25.3,N/A,,Clear,230,2013-07-03 19:56:00
4:56 PM,79.0,71.1,77,30.19,10.0,SW,15.0,24.2,N/A,,Clear,230,2013-07-03 20:56:00
5:56 PM,75.9,72.0,87,30.19,10.0,SW,18.4,24.2,N/A,,Clear,230,2013-07-03 21:56:00
6:34 PM,75.2,71.6,89,30.19,10.0,SW,20.7,26.5,N/A,,Scattered Clouds,230,2013-07-03 22:34:00
6:56 PM,75.0,72.0,90,30.19,10.0,SW,19.6,25.3,N/A,,Scattered Clouds,230,2013-07-03 22:56:00
7:35 PM,73.4,71.6,94,30.19,10.0,SW,16.1,-,N/A,,Mostly Cloudy,230,2013-07-03 23:35:00
7:56 PM,73.9,72.0,93,30.19,10.0,SW,15.0,-,N/A,,Overcast,230,2013-07-03 23:56:00
8:56 PM,73.0,72.0,96,30.22,10.0,SW,16.1,-,N/A,,Overcast,230,2013-07-04 00:56:00
9:06 PM,73.4,71.6,94,30.21,10.0,SW,16.1,24.2,N/A,,Overcast,230,2013-07-04 01:06:00
9:56 PM,73.0,72.0,96,30.22,3.0,WSW,18.4,-,N/A,,Overcast,240,2013-07-04 01:56:00
10:56 PM,73.0,72.0,96,30.21,6.0,SW,15.0,25.3,N/A,,Overcast,230,2013-07-04 02:56:00
11:53 PM,73.4,71.6,94,30.21,10.0,WSW,17.3,24.2,N/A,,Overcast,240,2013-07-04 03:53:00
11:56 PM,73.9,72.0,93,30.21,10.0,SW,19.6,25.3,N/A,,Overcast,230,2013-07-04 03:56:00